sensor_id;sensor_type;location;lat;lon;timestamp;pressure;altitude;pressure_sealevel;temperature;humidity
55442;BME280;41313;58.740;50.174;2022-10-13T00:03:18;100039.56;;;15.97;49.72
55442;BME280;41313;58.740;50.174;2022-10-13T00:08:20;100042.72;;;16.02;49.61
55442;BME280;41313;58.740;50.174;2022-10-13T00:13:22;100035.09;;;15.97;49.71
55442;BME280;41313;58.740;50.174;2022-10-13T00:18:23;100035.34;;;15.94;49.72
55442;BME280;41313;58.740;50.174;2022-10-13T00:23:25;100031.97;;;15.92;50.03
55442;BME280;41313;58.740;50.174;2022-10-13T00:28:26;100030.03;;;15.94;49.95
55442;BME280;41313;58.740;50.174;2022-10-13T00:33:28;100033.41;;;15.96;49.78
55442;BME280;41313;58.740;50.174;2022-10-13T00:38:29;100037.75;;;15.86;49.89
55442;BME280;41313;58.740;50.174;2022-10-13T00:49:05;100033.88;;;15.79;50.06
55442;BME280;41313;58.740;50.174;2022-10-13T00:54:09;100023.16;;;15.80;49.84
55442;BME280;41313;58.740;50.174;2022-10-13T00:59:17;100026.69;;;15.92;49.57
55442;BME280;41313;58.740;50.174;2022-10-13T01:04:26;100029.06;;;15.84;49.71
55442;BME280;41313;58.740;50.174;2022-10-13T01:09:29;100029.81;;;15.86;49.67
55442;BME280;41313;58.740;50.174;2022-10-13T01:14:46;100028.97;;;15.61;50.35
55442;BME280;41313;58.740;50.174;2022-10-13T01:25:27;100022.16;;;15.70;49.74
55442;BME280;41313;58.740;50.174;2022-10-13T01:30:39;100027.84;;;15.88;49.46
55442;BME280;41313;58.740;50.174;2022-10-13T01:36:06;100026.41;;;15.84;49.47
55442;BME280;41313;58.740;50.174;2022-10-13T01:46:25;100032.06;;;15.79;49.63
55442;BME280;41313;58.740;50.174;2022-10-13T01:51:29;100032.44;;;15.75;49.79
55442;BME280;41313;58.740;50.174;2022-10-13T01:56:31;100024.38;;;15.87;49.62
55442;BME280;41313;58.740;50.174;2022-10-13T02:07:29;100025.88;;;15.67;50.09
55442;BME280;41313;58.740;50.174;2022-10-13T02:12:41;100019.72;;;15.56;50.18
55442;BME280;41313;58.740;50.174;2022-10-13T02:17:44;100014.66;;;15.64;50.18
55442;BME280;41313;58.740;50.174;2022-10-13T02:22:49;100015.94;;;15.71;49.58
55442;BME280;41313;58.740;50.174;2022-10-13T02:27:53;100021.59;;;15.78;49.61
55442;BME280;41313;58.740;50.174;2022-10-13T02:32:56;100026.09;;;15.53;50.19
55442;BME280;41313;58.740;50.174;2022-10-13T02:37:58;100022.94;;;15.83;49.81
55442;BME280;41313;58.740;50.174;2022-10-13T02:43:00;100021.84;;;15.86;49.82
55442;BME280;41313;58.740;50.174;2022-10-13T02:48:02;100020.91;;;15.98;49.66
55442;BME280;41313;58.740;50.174;2022-10-13T02:53:03;100024.13;;;15.90;49.85
55442;BME280;41313;58.740;50.174;2022-10-13T02:58:05;100020.38;;;15.82;50.00
55442;BME280;41313;58.740;50.174;2022-10-13T03:03:06;100024.19;;;15.66;50.22
55442;BME280;41313;58.740;50.174;2022-10-13T03:08:08;100024.09;;;15.79;50.03
55442;BME280;41313;58.740;50.174;2022-10-13T03:13:09;100028.19;;;15.72;50.38
55442;BME280;41313;58.740;50.174;2022-10-13T03:18:11;100022.34;;;15.80;50.21
55442;BME280;41313;58.740;50.174;2022-10-13T03:23:13;100014.63;;;15.53;50.41
55442;BME280;41313;58.740;50.174;2022-10-13T03:28:15;100024.31;;;15.30;51.49
55442;BME280;41313;58.740;50.174;2022-10-13T03:33:18;100014.19;;;15.23;51.52
55442;BME280;41313;58.740;50.174;2022-10-13T03:38:19;100017.78;;;15.22;51.75
55442;BME280;41313;58.740;50.174;2022-10-13T03:43:22;100022.84;;;15.61;50.79
55442;BME280;41313;58.740;50.174;2022-10-13T03:48:24;100019.44;;;15.94;50.29
55442;BME280;41313;58.740;50.174;2022-10-13T03:53:26;100023.81;;;16.06;49.88
55442;BME280;41313;58.740;50.174;2022-10-13T03:58:27;100027.38;;;15.71;50.73
55442;BME280;41313;58.740;50.174;2022-10-13T04:03:29;100027.06;;;15.63;50.71
55442;BME280;41313;58.740;50.174;2022-10-13T04:08:32;100026.63;;;15.69;50.63
55442;BME280;41313;58.740;50.174;2022-10-13T04:13:33;100027.75;;;16.12;49.60
55442;BME280;41313;58.740;50.174;2022-10-13T04:18:35;100032.69;;;16.05;49.80
55442;BME280;41313;58.740;50.174;2022-10-13T04:23:37;100035.59;;;16.13;49.85
55442;BME280;41313;58.740;50.174;2022-10-13T04:28:38;100033.44;;;16.18;49.74
55442;BME280;41313;58.740;50.174;2022-10-13T04:33:40;100031.63;;;16.08;50.11
55442;BME280;41313;58.740;50.174;2022-10-13T04:38:42;100031.75;;;16.17;49.64
55442;BME280;41313;58.740;50.174;2022-10-13T04:43:48;100031.50;;;16.21;49.64
55442;BME280;41313;58.740;50.174;2022-10-13T04:48:50;100031.50;;;16.32;49.56
55442;BME280;41313;58.740;50.174;2022-10-13T04:53:57;100038.47;;;16.44;49.34
55442;BME280;41313;58.740;50.174;2022-10-13T04:58:59;100039.69;;;16.29;49.77
55442;BME280;41313;58.740;50.174;2022-10-13T05:04:02;100034.75;;;16.35;49.61
55442;BME280;41313;58.740;50.174;2022-10-13T05:09:13;100038.84;;;16.17;50.06
55442;BME280;41313;58.740;50.174;2022-10-13T05:14:16;100030.19;;;16.37;49.80
55442;BME280;41313;58.740;50.174;2022-10-13T05:19:18;100033.31;;;16.43;49.70
55442;BME280;41313;58.740;50.174;2022-10-13T05:24:23;100039.84;;;16.27;50.16
55442;BME280;41313;58.740;50.174;2022-10-13T05:29:36;100043.19;;;16.40;50.08
55442;BME280;41313;58.740;50.174;2022-10-13T05:34:38;100038.50;;;16.78;49.45
55442;BME280;41313;58.740;50.174;2022-10-13T05:39:39;100040.16;;;16.79;49.32
55442;BME280;41313;58.740;50.174;2022-10-13T05:44:41;100034.72;;;16.69;49.42
55442;BME280;41313;58.740;50.174;2022-10-13T05:49:43;100037.75;;;16.76;49.42
55442;BME280;41313;58.740;50.174;2022-10-13T05:54:47;100039.19;;;16.69;49.68
55442;BME280;41313;58.740;50.174;2022-10-13T05:59:57;100033.03;;;16.79;49.53
55442;BME280;41313;58.740;50.174;2022-10-13T06:05:02;100027.75;;;16.57;50.20
55442;BME280;41313;58.740;50.174;2022-10-13T06:10:05;100028.69;;;16.67;49.67
55442;BME280;41313;58.740;50.174;2022-10-13T06:15:07;100030.84;;;16.96;49.22
55442;BME280;41313;58.740;50.174;2022-10-13T06:20:09;100029.59;;;17.11;49.10
55442;BME280;41313;58.740;50.174;2022-10-13T06:25:11;100032.13;;;17.34;48.55
55442;BME280;41313;58.740;50.174;2022-10-13T06:30:12;100034.50;;;17.16;48.84
55442;BME280;41313;58.740;50.174;2022-10-13T06:35:14;100027.88;;;16.78;49.78
55442;BME280;41313;58.740;50.174;2022-10-13T06:40:16;100028.78;;;16.99;49.25
55442;BME280;41313;58.740;50.174;2022-10-13T06:45:18;100029.56;;;16.79;49.80
55442;BME280;41313;58.740;50.174;2022-10-13T06:50:21;100028.56;;;16.91;49.52
55442;BME280;41313;58.740;50.174;2022-10-13T06:55:22;100028.69;;;16.90;49.78
55442;BME280;41313;58.740;50.174;2022-10-13T07:00:24;100031.44;;;16.99;49.36
55442;BME280;41313;58.740;50.174;2022-10-13T07:05:26;100028.25;;;17.17;48.89
55442;BME280;41313;58.740;50.174;2022-10-13T07:10:27;100025.22;;;16.78;49.86
55442;BME280;41313;58.740;50.174;2022-10-13T07:15:29;100023.03;;;16.60;50.58
55442;BME280;41313;58.740;50.174;2022-10-13T07:20:31;100023.06;;;17.36;48.71
55442;BME280;41313;58.740;50.174;2022-10-13T07:25:33;100022.69;;;17.41;49.17
55442;BME280;41313;58.740;50.174;2022-10-13T07:30:37;100021.44;;;16.92;49.71
55442;BME280;41313;58.740;50.174;2022-10-13T07:35:40;100027.38;;;16.84;50.08
55442;BME280;41313;58.740;50.174;2022-10-13T07:40:41;100023.03;;;16.60;50.36
55442;BME280;41313;58.740;50.174;2022-10-13T07:45:45;100020.75;;;16.67;50.56
55442;BME280;41313;58.740;50.174;2022-10-13T07:50:47;100026.16;;;16.88;50.00
55442;BME280;41313;58.740;50.174;2022-10-13T07:55:48;100021.75;;;16.98;49.82
55442;BME280;41313;58.740;50.174;2022-10-13T08:00:58;100020.09;;;16.97;49.70
55442;BME280;41313;58.740;50.174;2022-10-13T08:06:00;100021.94;;;16.85;50.00
55442;BME280;41313;58.740;50.174;2022-10-13T08:11:04;100020.47;;;17.25;49.48
55442;BME280;41313;58.740;50.174;2022-10-13T08:16:09;100017.75;;;17.04;49.65
55442;BME280;41313;58.740;50.174;2022-10-13T08:21:15;100021.44;;;17.24;49.15
55442;BME280;41313;58.740;50.174;2022-10-13T08:26:26;100014.00;;;17.06;49.56
55442;BME280;41313;58.740;50.174;2022-10-13T08:31:29;100010.91;;;17.01;49.81
55442;BME280;41313;58.740;50.174;2022-10-13T08:36:30;100006.66;;;17.31;49.83
55442;BME280;41313;58.740;50.174;2022-10-13T08:41:36;100006.34;;;17.24;49.91
55442;BME280;41313;58.740;50.174;2022-10-13T08:46:49;100005.66;;;17.43;49.50
55442;BME280;41313;58.740;50.174;2022-10-13T08:51:51;100004.38;;;17.59;49.24
55442;BME280;41313;58.740;50.174;2022-10-13T08:56:54;100001.53;;;17.18;50.06
55442;BME280;41313;58.740;50.174;2022-10-13T09:01:56;99997.00;;;17.09;50.17
55442;BME280;41313;58.740;50.174;2022-10-13T09:07:05;99990.81;;;17.20;50.01
55442;BME280;41313;58.740;50.174;2022-10-13T09:12:11;99982.50;;;17.13;49.97
55442;BME280;41313;58.740;50.174;2022-10-13T09:17:15;99981.53;;;16.82;50.97
55442;BME280;41313;58.740;50.174;2022-10-13T09:22:22;99974.41;;;17.15;50.54
55442;BME280;41313;58.740;50.174;2022-10-13T09:27:24;99974.66;;;17.12;50.80
55442;BME280;41313;58.740;50.174;2022-10-13T09:32:25;99973.97;;;16.98;51.02
55442;BME280;41313;58.740;50.174;2022-10-13T09:37:27;99966.84;;;16.78;51.43
55442;BME280;41313;58.740;50.174;2022-10-13T09:42:30;99973.00;;;17.11;50.81
55442;BME280;41313;58.740;50.174;2022-10-13T09:47:37;99982.50;;;17.13;51.05
55442;BME280;41313;58.740;50.174;2022-10-13T09:52:41;99967.28;;;17.15;50.90
55442;BME280;41313;58.740;50.174;2022-10-13T09:57:47;99966.91;;;17.20;51.00
55442;BME280;41313;58.740;50.174;2022-10-13T10:03:12;99964.84;;;17.44;50.87
55442;BME280;41313;58.740;50.174;2022-10-13T10:08:32;99966.97;;;17.50;50.83
55442;BME280;41313;58.740;50.174;2022-10-13T10:13:36;99955.47;;;17.71;49.90
55442;BME280;41313;58.740;50.174;2022-10-13T10:18:47;99958.13;;;17.40;50.66
55442;BME280;41313;58.740;50.174;2022-10-13T10:29:58;99958.94;;;17.41;50.50
55442;BME280;41313;58.740;50.174;2022-10-13T10:35:13;99956.41;;;17.39;50.40
55442;BME280;41313;58.740;50.174;2022-10-13T10:45:33;99966.91;;;17.62;50.17
55442;BME280;41313;58.740;50.174;2022-10-13T10:50:38;99960.50;;;17.43;50.49
55442;BME280;41313;58.740;50.174;2022-10-13T10:55:51;99962.91;;;17.46;50.44
55442;BME280;41313;58.740;50.174;2022-10-13T11:06:20;99961.44;;;17.00;51.52
55442;BME280;41313;58.740;50.174;2022-10-13T11:16:27;99946.75;;;17.17;51.14
55442;BME280;41313;58.740;50.174;2022-10-13T11:26:52;99946.50;;;17.20;50.89
55442;BME280;41313;58.740;50.174;2022-10-13T11:31:54;99949.69;;;17.35;50.61
55442;BME280;41313;58.740;50.174;2022-10-13T11:37:01;99941.78;;;17.75;49.67
55442;BME280;41313;58.740;50.174;2022-10-13T11:42:32;99936.34;;;18.08;49.06
55442;BME280;41313;58.740;50.174;2022-10-13T11:53:03;99938.72;;;18.01;48.99
55442;BME280;41313;58.740;50.174;2022-10-13T11:58:16;99944.53;;;17.85;49.05
55442;BME280;41313;58.740;50.174;2022-10-13T12:03:20;99947.63;;;17.90;49.10
55442;BME280;41313;58.740;50.174;2022-10-13T12:08:23;99945.03;;;18.00;49.39
55442;BME280;41313;58.740;50.174;2022-10-13T12:13:29;99948.88;;;17.65;49.64
55442;BME280;41313;58.740;50.174;2022-10-13T12:18:33;99941.72;;;17.35;50.16
55442;BME280;41313;58.740;50.174;2022-10-13T12:23:36;99947.03;;;17.35;49.94
55442;BME280;41313;58.740;50.174;2022-10-13T12:28:57;99935.41;;;16.94;51.08
55442;BME280;41313;58.740;50.174;2022-10-13T12:34:01;99937.31;;;16.92;51.13
55442;BME280;41313;58.740;50.174;2022-10-13T12:39:06;99932.69;;;17.47;49.95
55442;BME280;41313;58.740;50.174;2022-10-13T12:44:19;99942.81;;;17.53;49.88
55442;BME280;41313;58.740;50.174;2022-10-13T12:49:24;99938.38;;;17.64;49.68
55442;BME280;41313;58.740;50.174;2022-10-13T12:54:29;99944.59;;;16.90;51.26
55442;BME280;41313;58.740;50.174;2022-10-13T12:59:31;99944.84;;;17.19;50.75
55442;BME280;41313;58.740;50.174;2022-10-13T13:04:42;99949.41;;;17.38;50.41
55442;BME280;41313;58.740;50.174;2022-10-13T13:20:33;99953.91;;;17.38;50.54
55442;BME280;41313;58.740;50.174;2022-10-13T13:25:37;99955.56;;;17.18;50.56
55442;BME280;41313;58.740;50.174;2022-10-13T13:30:40;99956.97;;;17.22;50.87
55442;BME280;41313;58.740;50.174;2022-10-13T13:35:42;99956.94;;;17.33;50.33
55442;BME280;41313;58.740;50.174;2022-10-13T13:40:43;99954.25;;;17.54;50.15
55442;BME280;41313;58.740;50.174;2022-10-13T13:45:46;99953.88;;;16.96;51.42
55442;BME280;41313;58.740;50.174;2022-10-13T13:50:48;99957.91;;;17.11;50.92
55442;BME280;41313;58.740;50.174;2022-10-13T13:55:49;99961.75;;;16.75;51.74
55442;BME280;41313;58.740;50.174;2022-10-13T14:00:52;99953.94;;;17.26;50.28
55442;BME280;41313;58.740;50.174;2022-10-13T14:05:54;99958.28;;;17.27;50.31
55442;BME280;41313;58.740;50.174;2022-10-13T14:10:56;99959.22;;;16.84;51.06
55442;BME280;41313;58.740;50.174;2022-10-13T14:15:59;99969.34;;;16.25;52.47
55442;BME280;41313;58.740;50.174;2022-10-13T14:21:04;99962.81;;;15.72;54.18
55442;BME280;41313;58.740;50.174;2022-10-13T14:26:07;99967.84;;;16.43;52.76
55442;BME280;41313;58.740;50.174;2022-10-13T14:31:10;99959.94;;;15.87;53.99
55442;BME280;41313;58.740;50.174;2022-10-13T14:36:13;99964.75;;;15.93;53.37
55442;BME280;41313;58.740;50.174;2022-10-13T14:41:14;99965.13;;;15.77;53.77
55442;BME280;41313;58.740;50.174;2022-10-13T14:46:20;99969.81;;;15.74;54.03
55442;BME280;41313;58.740;50.174;2022-10-13T14:51:22;99960.06;;;15.74;54.25
55442;BME280;41313;58.740;50.174;2022-10-13T14:56:26;99957.28;;;14.94;55.43
55442;BME280;41313;58.740;50.174;2022-10-13T15:01:28;99955.75;;;15.49;54.18
55442;BME280;41313;58.740;50.174;2022-10-13T15:06:30;99950.25;;;15.63;53.95
55442;BME280;41313;58.740;50.174;2022-10-13T15:11:32;99953.28;;;15.59;53.78
55442;BME280;41313;58.740;50.174;2022-10-13T15:16:34;99957.25;;;15.18;54.83
55442;BME280;41313;58.740;50.174;2022-10-13T15:21:38;99954.38;;;15.21;54.57
55442;BME280;41313;58.740;50.174;2022-10-13T15:26:40;99948.97;;;15.22;55.56
55442;BME280;41313;58.740;50.174;2022-10-13T15:31:42;99949.78;;;14.40;56.44
55442;BME280;41313;58.740;50.174;2022-10-13T15:36:44;99937.44;;;14.64;56.38
55442;BME280;41313;58.740;50.174;2022-10-13T15:41:45;99939.53;;;15.07;54.71
55442;BME280;41313;58.740;50.174;2022-10-13T15:46:47;99937.75;;;14.84;55.42
55442;BME280;41313;58.740;50.174;2022-10-13T15:51:49;99935.13;;;14.59;56.10
55442;BME280;41313;58.740;50.174;2022-10-13T15:56:51;99941.66;;;15.02;54.97
55442;BME280;41313;58.740;50.174;2022-10-13T16:01:52;99927.81;;;14.26;57.10
55442;BME280;41313;58.740;50.174;2022-10-13T16:06:54;99934.19;;;14.96;55.17
55442;BME280;41313;58.740;50.174;2022-10-13T16:11:55;99936.69;;;14.86;55.46
55442;BME280;41313;58.740;50.174;2022-10-13T16:16:57;99931.19;;;14.65;55.84
55442;BME280;41313;58.740;50.174;2022-10-13T16:21:58;99935.47;;;15.14;54.70
55442;BME280;41313;58.740;50.174;2022-10-13T16:27:00;99934.75;;;15.12;54.71
55442;BME280;41313;58.740;50.174;2022-10-13T16:32:04;99926.63;;;14.91;55.37
55442;BME280;41313;58.740;50.174;2022-10-13T16:37:05;99922.34;;;14.77;55.61
55442;BME280;41313;58.740;50.174;2022-10-13T16:42:06;99923.94;;;15.15;54.70
55442;BME280;41313;58.740;50.174;2022-10-13T16:47:08;99913.03;;;14.48;56.19
55442;BME280;41313;58.740;50.174;2022-10-13T16:52:10;99912.53;;;14.43;56.08
55442;BME280;41313;58.740;50.174;2022-10-13T16:57:11;99915.34;;;14.28;57.31
55442;BME280;41313;58.740;50.174;2022-10-13T17:02:13;99909.03;;;14.42;56.32
55442;BME280;41313;58.740;50.174;2022-10-13T17:07:15;99907.63;;;14.62;56.26
55442;BME280;41313;58.740;50.174;2022-10-13T17:12:17;99909.53;;;14.47;56.13
55442;BME280;41313;58.740;50.174;2022-10-13T17:17:19;99907.44;;;14.52;56.08
55442;BME280;41313;58.740;50.174;2022-10-13T17:22:20;99907.53;;;14.75;55.57
55442;BME280;41313;58.740;50.174;2022-10-13T17:27:22;99896.03;;;14.39;56.74
55442;BME280;41313;58.740;50.174;2022-10-13T17:32:24;99896.91;;;14.40;56.30
55442;BME280;41313;58.740;50.174;2022-10-13T17:37:25;99903.47;;;14.34;56.49
55442;BME280;41313;58.740;50.174;2022-10-13T17:42:27;99895.59;;;14.45;56.45
55442;BME280;41313;58.740;50.174;2022-10-13T17:47:29;99904.09;;;14.38;55.78
55442;BME280;41313;58.740;50.174;2022-10-13T17:52:31;99897.91;;;14.26;56.44
55442;BME280;41313;58.740;50.174;2022-10-13T17:57:33;99901.16;;;14.29;56.20
55442;BME280;41313;58.740;50.174;2022-10-13T18:02:36;99900.50;;;14.39;56.27
55442;BME280;41313;58.740;50.174;2022-10-13T18:07:38;99893.97;;;14.31;55.95
55442;BME280;41313;58.740;50.174;2022-10-13T18:12:40;99888.69;;;14.31;56.41
55442;BME280;41313;58.740;50.174;2022-10-13T18:17:42;99895.59;;;14.45;55.65
55442;BME280;41313;58.740;50.174;2022-10-13T18:22:43;99897.81;;;14.14;56.44
55442;BME280;41313;58.740;50.174;2022-10-13T18:27:45;99891.78;;;14.12;56.31
55442;BME280;41313;58.740;50.174;2022-10-13T18:32:46;99896.19;;;14.62;55.57
55442;BME280;41313;58.740;50.174;2022-10-13T18:37:50;99886.19;;;14.17;56.06
55442;BME280;41313;58.740;50.174;2022-10-13T18:42:52;99892.25;;;14.67;54.82
55442;BME280;41313;58.740;50.174;2022-10-13T18:47:53;99892.34;;;14.42;55.51
55442;BME280;41313;58.740;50.174;2022-10-13T18:52:55;99883.09;;;14.47;55.65
55442;BME280;41313;58.740;50.174;2022-10-13T18:57:57;99885.22;;;14.18;56.07
55442;BME280;41313;58.740;50.174;2022-10-13T19:02:59;99888.97;;;14.40;55.72
55442;BME280;41313;58.740;50.174;2022-10-13T19:08:00;99887.41;;;14.37;55.66
55442;BME280;41313;58.740;50.174;2022-10-13T19:13:02;99884.41;;;14.42;55.43
55442;BME280;41313;58.740;50.174;2022-10-13T19:18:03;99881.66;;;14.43;55.37
55442;BME280;41313;58.740;50.174;2022-10-13T19:23:06;99878.84;;;13.97;56.06
55442;BME280;41313;58.740;50.174;2022-10-13T19:28:07;99874.34;;;14.47;55.54
55442;BME280;41313;58.740;50.174;2022-10-13T19:33:12;99875.06;;;13.88;56.69
55442;BME280;41313;58.740;50.174;2022-10-13T19:38:21;99877.81;;;14.47;55.46
55442;BME280;41313;58.740;50.174;2022-10-13T19:43:23;99880.91;;;14.17;56.05
55442;BME280;41313;58.740;50.174;2022-10-13T19:48:25;99875.25;;;13.98;56.52
55442;BME280;41313;58.740;50.174;2022-10-13T19:53:27;99880.97;;;14.28;55.88
55442;BME280;41313;58.740;50.174;2022-10-13T19:58:28;99875.63;;;14.17;55.53
55442;BME280;41313;58.740;50.174;2022-10-13T20:03:30;99873.19;;;14.14;55.60
55442;BME280;41313;58.740;50.174;2022-10-13T20:08:31;99874.88;;;13.78;56.35
55442;BME280;41313;58.740;50.174;2022-10-13T20:13:33;99874.94;;;13.27;57.58
55442;BME280;41313;58.740;50.174;2022-10-13T20:18:35;99874.06;;;13.52;57.30
55442;BME280;41313;58.740;50.174;2022-10-13T20:23:38;99876.38;;;13.70;56.47
55442;BME280;41313;58.740;50.174;2022-10-13T20:28:43;99885.03;;;13.72;56.58
55442;BME280;41313;58.740;50.174;2022-10-13T20:33:46;99882.28;;;13.22;57.95
55442;BME280;41313;58.740;50.174;2022-10-13T20:38:50;99884.63;;;13.52;57.14
55442;BME280;41313;58.740;50.174;2022-10-13T20:43:56;99882.00;;;12.74;58.98
55442;BME280;41313;58.740;50.174;2022-10-13T20:48:58;99878.25;;;13.04;58.20
55442;BME280;41313;58.740;50.174;2022-10-13T20:54:00;99877.97;;;13.21;57.95
55442;BME280;41313;58.740;50.174;2022-10-13T20:59:03;99882.81;;;13.53;56.64
55442;BME280;41313;58.740;50.174;2022-10-13T21:04:05;99892.75;;;13.49;57.39
55442;BME280;41313;58.740;50.174;2022-10-13T21:09:07;99886.63;;;13.49;56.56
55442;BME280;41313;58.740;50.174;2022-10-13T21:14:09;99887.16;;;13.41;56.60
55442;BME280;41313;58.740;50.174;2022-10-13T21:19:11;99884.00;;;13.36;57.15
55442;BME280;41313;58.740;50.174;2022-10-13T21:24:12;99886.53;;;13.37;57.47
55442;BME280;41313;58.740;50.174;2022-10-13T21:29:14;99876.13;;;13.85;56.30
55442;BME280;41313;58.740;50.174;2022-10-13T21:34:15;99886.44;;;13.39;57.55
55442;BME280;41313;58.740;50.174;2022-10-13T21:39:17;99885.53;;;13.77;55.95
55442;BME280;41313;58.740;50.174;2022-10-13T21:44:18;99881.47;;;13.34;56.91
55442;BME280;41313;58.740;50.174;2022-10-13T21:49:20;99887.75;;;13.83;55.49
55442;BME280;41313;58.740;50.174;2022-10-13T21:54:21;99889.03;;;13.64;56.29
55442;BME280;41313;58.740;50.174;2022-10-13T21:59:23;99893.69;;;13.35;57.13
55442;BME280;41313;58.740;50.174;2022-10-13T22:04:25;99885.66;;;13.75;55.98
55442;BME280;41313;58.740;50.174;2022-10-13T22:09:26;99882.28;;;13.73;56.36
55442;BME280;41313;58.740;50.174;2022-10-13T22:14:32;99881.94;;;13.90;55.90
55442;BME280;41313;58.740;50.174;2022-10-13T22:19:33;99886.97;;;13.57;56.30
55442;BME280;41313;58.740;50.174;2022-10-13T22:24:35;99881.97;;;13.65;56.03
55442;BME280;41313;58.740;50.174;2022-10-13T22:29:36;99892.03;;;13.60;55.70
55442;BME280;41313;58.740;50.174;2022-10-13T22:34:38;99884.84;;;13.49;56.35
55442;BME280;41313;58.740;50.174;2022-10-13T22:39:39;99893.81;;;13.72;55.69
55442;BME280;41313;58.740;50.174;2022-10-13T22:44:44;99893.72;;;13.48;56.01
55442;BME280;41313;58.740;50.174;2022-10-13T22:49:46;99888.88;;;13.91;55.04
55442;BME280;41313;58.740;50.174;2022-10-13T22:54:51;99889.31;;;13.85;54.73
55442;BME280;41313;58.740;50.174;2022-10-13T22:59:52;99886.25;;;14.28;54.16
55442;BME280;41313;58.740;50.174;2022-10-13T23:04:54;99886.28;;;13.79;55.07
55442;BME280;41313;58.740;50.174;2022-10-13T23:09:55;99890.97;;;13.50;55.90
55442;BME280;41313;58.740;50.174;2022-10-13T23:14:57;99886.53;;;13.63;55.39
55442;BME280;41313;58.740;50.174;2022-10-13T23:19:59;99896.66;;;13.56;55.81
55442;BME280;41313;58.740;50.174;2022-10-13T23:25:00;99898.75;;;13.77;54.88
55442;BME280;41313;58.740;50.174;2022-10-13T23:30:03;99888.94;;;13.66;55.75
55442;BME280;41313;58.740;50.174;2022-10-13T23:35:04;99883.47;;;13.31;56.57
55442;BME280;41313;58.740;50.174;2022-10-13T23:40:06;99883.34;;;13.58;55.91
55442;BME280;41313;58.740;50.174;2022-10-13T23:45:08;99888.63;;;13.32;56.35
55442;BME280;41313;58.740;50.174;2022-10-13T23:50:10;99881.78;;;13.42;56.51
55442;BME280;41313;58.740;50.174;2022-10-13T23:55:11;99884.22;;;13.45;56.14
